CheckWX is a tool to help pilots better visualize weather data.  It is not intended as a substitute for an official pre-flight weather briefing.

12:55:40 UTC

EPLB METAR
Lublin Airport
Lublin, Poland
Current

26 mins ago

EPLB 181230Z VRB02KT 9999 BKN028 09/04 Q1023
Observed
Feb-18 @ 12:30 UTC
Wind
  • Variable at 2 KTS
Visibility
10,000+ meters
Flight Rules
MVFR
Cloud Levels
  • Broken at 2,800' AGL
Temperature
C / 48°F
Dewpoint
C / 39°F
Humidity
71%
Altimeter
30.21" Hg
Pressure
1022.92 hPa
Previous

56 mins ago

EPLB 181200Z 21003KT 9999 BKN022 09/04 Q1023
Observed
Feb-18 @ 12:00 UTC
Wind
  • 210° at 3 KTS
Visibility
10,000+ meters
Flight Rules
MVFR
Cloud Levels
  • Broken at 2,200' AGL
Temperature
C / 48°F
Dewpoint
C / 39°F
Humidity
71%
Altimeter
30.21" Hg
Pressure
1022.92 hPa
Previous

1 hour ago

EPLB 181130Z 22003KT 180V350 9999 BKN023 08/04 Q1023
Observed
Feb-18 @ 11:30 UTC
Wind
  • 220° at 3 KTS
Visibility
10,000+ meters
Flight Rules
MVFR
Cloud Levels
  • Broken at 2,300' AGL
Temperature
C / 46°F
Dewpoint
C / 39°F
Humidity
76%
Altimeter
30.21" Hg
Pressure
1022.92 hPa